Aérodrome :
LOGIN :

S'inscrire | Disclaimer

   EN    FR    IT 

 










Légende :    VFR   VFR Marginal   IFR   IFR Intensif   IFR Très Intensif
Visi : 
Plafond : 
>= 8 km
>= 3000ft
5 à 8 km
1000 à 3000 ft
1500m à 5 km
500 à 1000 ft
800 à 1500m
200 à 500 ft
< 800m
< 200 ft
Symboles :   Orages  Brouillard  Fortes neiges  Fortes précipitations  Vent > 20 kt
SIGMETs :   Divers  Orages  Givrage  Turbulence  Onde Orograph.  Cendres Volcan.






- Altitude de l'aérodrome : -11 ft
- Code IATA : AMS


EHAM - Amsterdam Schiphol

DERNIER METAR :
  • 151225Z 21020KT 9999 FEW020 FEW025CB SCT028 07/04 Q0997 TEMPO 24024G37KT 7000 SHRA

METARs EXPIRÉS :
  • 151155Z 23019KT 190V260 9999 -SHRA FEW020 FEW025CB SCT028 09/05 Q0997 TEMPO 24024G37KT 7000 SHRA
  • 151125Z 24018KT 9999 FEW033 09/03 Q0996 TEMPO 24024G37KT 7000 -SHRA SCT025CB
  • 151055Z 24020G30KT 200V260 9999 FEW033 09/03 Q0996 NOSIG
  • 151025Z 24021G31KT 210V270 9999 FEW033 09/03 Q0996 NOSIG
  • 150955Z 23020G30KT 9999 FEW033 08/03 Q0995 NOSIG

TAF TAF EHAM
Valide du 15 à 12h jusqu'au 16 à 18h UTC


151121Z 1512/1618 23020G30KT 9999 FEW025
TEMPO 1512/1521 24024G35KT 5000 SHRA TSRAGS SCT015 SCT020CB
BECMG 1519/1522 21015KT
BECMG 1602/1605 18011KT
PROB30
TEMPO 1608/1612 7000 -RA BKN007
BECMG 1611/1614 7000 -RADZ SCT007 BKN040
PROB40
TEMPO 1612/1618 4500 DZRA BKN007
BECMG 1614/1617 14005KT



MET'MAP, la Météo Aéronautique d'un coup d'oeil ! - Copyright ORBIFLY Décembre 2007 - Disclaimer

ORBIFLY MET'MAP TEAM :

Programmation & Développement : Alexandra Zaïnal
Sur une idée originale de : Baudouin d'Aumeries
Assistance à la programmation : Marc-Olivier Méhu
Soutien technique & logistique : Manuel Goepfert

Contact : metmap@orbifly.com




SOURCES & CREDITS :

   NOAA